Burlington, Indiana
Current Conditions -  °F | °C
As of 11:55 AM on Monday 22 Dec 2014 (Local Time) from KGGP Reporting Station
Overcast Overcast  
Wind Chill: 27°   Ceiling: 3700
Heat Index: 34°   Visibility: 7mi
Dew Point: 32°   Wind: 8mph
Humidity: 93%   Direction: 100°E
Pressure: 29.9"   Gusts: NA
Location:  40.48°N, 86.39°W
Report Text: KGGP 221655Z AUTO 10007KT 7SM SCT010 BKN037 OVC070 01/00 A2990 RMK AO2
Loading
Personal Weather Stations






























Interactive Weather Map New forecast layout! Learn more

10-Day Weather Forecast

Advertisements
Track Severe Weather on mobile